Time;durP1;ratioP1;P1;durP2;ratioP2;P2;SDS_P1;SDS_P2;PMS_P1;PMS_P2;Temp;Humidity;BMP_temperature;BMP_pressure;BME280_temperature;BME280_humidity;BME280_pressure;Samples;Min_cycle;Max_cycle;Signal;HPM_P1;HPM_P2
2023/02/02 00:02:03;;;;;;;26.13;7.47;;;;;;;6.84;100.00;101375.38;5025121;28;20120;-79
2023/02/02 00:04:31;;;;;;;20.52;7.78;;;;;;;6.79;100.00;101379.25;5026557;28;20585;-79
2023/02/02 00:07:03;;;;;;;27.30;7.53;;;;;;;6.73;100.00;101383.13;5030412;28;20170;-80
2023/02/02 00:09:31;;;;;;;29.83;9.13;;;;;;;6.77;100.00;101371.56;5031356;28;20065;-79
2023/02/02 00:15:04;;;;;;;30.30;8.27;;;;;;;6.68;100.00;101374.84;5030563;28;20060;-82
2023/02/02 00:17:39;;;;;;;29.92;7.15;;;;;;;6.51;100.00;101357.06;5037829;28;20140;-78
2023/02/02 00:20:10;;;;;;;22.88;7.45;;;;;;;6.50;100.00;101332.00;5029131;28;20148;-79
2023/02/02 00:22:38;;;;;;;21.98;7.13;;;;;;;6.71;100.00;101364.22;5033676;28;20127;-81
2023/02/02 00:25:54;;;;;;;;;;;;;;;;;;;;;
2023/02/02 00:28:31;;;;;;;28.40;8.00;;;;;;;6.82;100.00;101372.06;5132605;23;20108;-80
2023/02/02 00:31:13;;;;;;;22.48;7.07;;;;;;;6.75;100.00;101349.22;5059647;28;20044;-81
2023/02/02 00:33:48;;;;;;;23.13;7.53;;;;;;;6.90;100.00;101369.72;5050080;28;20049;-79
2023/02/02 00:36:35;;;;;;;22.17;7.65;;;;;;;6.90;100.00;101374.94;5057000;28;20112;-82
2023/02/02 00:42:40;;;;;;;24.17;9.15;;;;;;;7.12;99.58;101368.09;5040618;28;20503;-78
2023/02/02 00:45:50;;;;;;;19.55;7.85;;;;;;;6.84;99.43;101338.97;5028353;28;20053;-79
2023/02/02 00:52:10;;;;;;;16.27;6.20;;;;;;;6.93;100.00;101360.84;4991243;28;20128;-81
2023/02/02 00:55:33;;;;;;;24.85;7.70;;;;;;;6.92;100.00;101373.03;5027757;28;20057;-80
2023/02/02 00:58:49;;;;;;;37.40;9.13;;;;;;;6.73;100.00;101325.91;5047164;28;20049;-80
2023/02/02 01:01:31;;;;;;;27.58;9.30;;;;;;;6.71;100.00;101320.00;4995456;28;20080;-81
2023/02/02 01:04:46;;;;;;;34.78;10.70;;;;;;;6.69;100.00;101327.09;5050812;28;20045;-79
2023/02/02 01:07:58;;;;;;;26.88;9.35;;;;;;;6.88;100.00;101360.38;5005823;28;20149;-82
2023/02/02 01:36:12;;;;;;;26.75;7.38;;;;;;;6.53;100.00;101388.97;5076982;23;20410;-78
2023/02/02 01:38:39;;;;;;;24.83;7.35;;;;;;;6.54;100.00;101393.25;5064729;28;20534;-77
2023/02/02 01:41:06;;;;;;;27.30;8.23;;;;;;;6.52;100.00;101382.13;5066041;28;20132;-76
2023/02/02 01:43:53;;;;;;;33.65;11.38;;;;;;;6.47;100.00;101399.81;5060463;28;20045;-77
2023/02/02 01:46:22;;;;;;;27.33;9.35;;;;;;;6.47;100.00;101398.06;5042437;28;20053;-78
2023/02/02 01:48:52;;;;;;;25.55;9.63;;;;;;;6.49;100.00;101411.78;5044621;28;20133;-78
2023/02/02 01:51:23;;;;;;;34.45;9.55;;;;;;;6.53;100.00;101401.97;5043470;28;20099;-77
2023/02/02 01:53:53;;;;;;;30.80;8.88;;;;;;;6.64;100.00;101409.81;5046160;28;20127;-78
2023/02/02 01:56:26;;;;;;;24.65;8.40;;;;;;;6.75;100.00;101409.88;5047005;28;20117;-77
2023/02/02 01:58:53;;;;;;;27.55;8.27;;;;;;;6.71;100.00;101418.00;5049920;28;20483;-79
2023/02/02 02:01:19;;;;;;;24.20;8.32;;;;;;;6.83;100.00;101406.72;5048160;28;20055;-79
2023/02/02 02:03:46;;;;;;;23.55;7.22;;;;;;;6.87;100.00;101419.38;5048758;28;20140;-79
2023/02/02 02:06:17;;;;;;;24.67;7.85;;;;;;;6.87;100.00;101408.13;5049030;28;20068;-78
2023/02/02 02:08:51;;;;;;;25.10;7.60;;;;;;;6.83;100.00;101399.72;5048078;28;20045;-77
2023/02/02 02:11:17;;;;;;;29.88;8.00;;;;;;;6.91;100.00;101413.00;5045588;28;20117;-79
2023/02/02 02:16:39;;;;;;;28.08;8.85;;;;;;;6.81;100.00;101406.81;5048919;28;20065;-78
2023/02/02 02:19:24;;;;;;;26.15;8.23;;;;;;;6.75;100.00;101402.06;5050752;28;20112;-79
2023/02/02 02:28:34;;;;;;;35.20;10.15;;;;;;;6.72;100.00;101401.47;5038551;28;20060;-78
2023/02/02 02:31:27;;;;;;;31.80;9.65;;;;;;;6.72;100.00;101389.28;5039437;28;20052;-79
2023/02/02 02:33:59;;;;;;;37.92;10.77;;;;;;;6.76;100.00;101390.72;5048129;28;20525;-78
2023/02/02 02:36:36;;;;;;;35.30;10.53;;;;;;;6.83;100.00;101394.53;5046832;28;20271;-77
2023/02/02 02:39:10;;;;;;;27.60;10.00;;;;;;;6.80;100.00;101384.34;5044911;28;20371;-79
2023/02/02 02:41:43;;;;;;;27.83;10.20;;;;;;;6.84;100.00;101398.78;5042049;28;20089;-79
2023/02/02 02:44:14;;;;;;;28.38;10.20;;;;;;;6.78;100.00;101394.03;5047921;28;20049;-78
2023/02/02 02:46:41;;;;;;;29.23;10.50;;;;;;;6.84;100.00;101387.56;5044527;28;20135;-78
2023/02/02 02:49:11;;;;;;;33.70;10.73;;;;;;;6.84;100.00;101390.16;5042331;28;20092;-78
2023/02/02 02:51:48;;;;;;;30.08;10.48;;;;;;;6.89;100.00;101393.25;5047011;28;20049;-79
2023/02/02 02:54:21;;;;;;;25.30;10.07;;;;;;;6.87;100.00;101390.75;5047448;28;20469;-78
2023/02/02 02:57:01;;;;;;;31.65;10.57;;;;;;;6.80;100.00;101388.72;5048125;28;20068;-80
2023/02/02 02:59:37;;;;;;;24.63;9.18;;;;;;;6.79;100.00;101393.09;5046400;28;20555;-79
2023/02/02 03:02:15;;;;;;;25.30;9.30;;;;;;;6.75;100.00;101403.84;5044950;28;20152;-80
2023/02/02 03:04:54;;;;;;;30.10;10.75;;;;;;;6.74;100.00;101396.97;5044224;28;20415;-80
2023/02/02 03:07:26;;;;;;;29.55;10.65;;;;;;;6.73;100.00;101403.13;5052087;28;20121;-78
2023/02/02 03:09:56;;;;;;;30.95;10.95;;;;;;;6.75;100.00;101406.44;5054921;28;20072;-79
2023/02/02 03:12:23;;;;;;;27.83;10.52;;;;;;;6.69;100.00;101409.47;5045516;28;20084;-79
2023/02/02 03:14:50;;;;;;;32.25;10.50;;;;;;;6.68;100.00;101410.41;5049113;28;20081;-78
2023/02/02 03:17:17;;;;;;;27.15;10.68;;;;;;;6.59;100.00;101397.19;5045684;28;20053;-77
2023/02/02 03:19:44;;;;;;;27.48;10.05;;;;;;;6.63;100.00;101410.75;5046528;28;20144;-77
2023/02/02 03:22:11;;;;;;;26.65;11.30;;;;;;;6.66;100.00;101413.13;5046152;28;20099;-79
2023/02/02 03:24:38;;;;;;;29.88;9.50;;;;;;;6.64;100.00;101410.66;5044525;28;20069;-76
2023/02/02 03:27:04;;;;;;;28.10;9.85;;;;;;;6.60;100.00;101411.00;5045779;28;20049;-78
2023/02/02 03:29:31;;;;;;;28.55;10.07;;;;;;;6.63;100.00;101414.19;5045598;28;20136;-79
2023/02/02 03:31:58;;;;;;;33.45;9.63;;;;;;;6.60;100.00;101404.03;5044334;28;20041;-77
2023/02/02 03:34:24;;;;;;;28.92;9.80;;;;;;;6.67;100.00;101414.78;5047120;28;20076;-77
2023/02/02 03:36:52;;;;;;;32.60;10.35;;;;;;;6.62;100.00;101416.91;5052094;28;20049;-77
2023/02/02 03:39:19;;;;;;;26.70;9.82;;;;;;;6.62;100.00;101424.69;5046816;28;20140;-77
2023/02/02 03:41:45;;;;;;;24.05;9.55;;;;;;;6.65;100.00;101412.31;5045883;28;20545;-77
2023/02/02 03:44:12;;;;;;;30.58;10.60;;;;;;;6.64;100.00;101415.00;5044001;28;20053;-77
2023/02/02 03:46:39;;;;;;;24.98;10.63;;;;;;;6.66;100.00;101423.53;5043158;28;20080;-76
2023/02/02 03:49:05;;;;;;;28.10;9.85;;;;;;;6.61;100.00;101417.88;5047422;28;20123;-77
2023/02/02 03:51:32;;;;;;;27.40;9.43;;;;;;;6.66;100.00;101419.16;5047799;28;20084;-78
2023/02/02 03:54:00;;;;;;;21.10;8.23;;;;;;;6.68;100.00;101416.44;5052119;28;20073;-76
2023/02/02 03:56:26;;;;;;;26.70;8.82;;;;;;;6.64;100.00;101410.66;5051496;28;20052;-77
2023/02/02 03:58:53;;;;;;;26.15;10.57;;;;;;;6.63;100.00;101418.56;5052469;28;20077;-76
2023/02/02 04:01:26;;;;;;;23.38;8.43;;;;;;;6.60;100.00;101424.00;5050799;28;20048;-78
2023/02/02 04:03:53;;;;;;;29.25;9.75;;;;;;;6.59;100.00;101414.53;5052130;28;20132;-77
2023/02/02 04:06:20;;;;;;;26.98;9.27;;;;;;;6.59;100.00;101424.94;5052863;28;20128;-78
2023/02/02 04:08:46;;;;;;;30.45;8.93;;;;;;;6.59;100.00;101427.53;5052820;28;20053;-78
2023/02/02 04:11:14;;;;;;;26.85;7.95;;;;;;;6.58;100.00;101428.50;5055547;28;20076;-77
2023/02/02 04:13:42;;;;;;;31.02;8.70;;;;;;;6.56;100.00;101417.38;5054762;28;20045;-78
2023/02/02 04:16:09;;;;;;;29.40;9.60;;;;;;;6.58;100.00;101431.91;5052155;28;20041;-78
2023/02/02 04:18:37;;;;;;;26.23;8.38;;;;;;;6.61;100.00;101429.09;5048090;28;20072;-77
2023/02/02 04:21:06;;;;;;;22.92;8.75;;;;;;;6.67;100.00;101435.59;5032992;28;20041;-77
2023/02/02 04:23:33;;;;;;;33.45;10.40;;;;;;;6.66;100.00;101429.56;5038260;28;20085;-77
2023/02/02 04:25:59;;;;;;;24.48;9.05;;;;;;;6.68;100.00;101439.03;5044723;28;20048;-78
2023/02/02 04:28:28;;;;;;;28.88;9.75;;;;;;;6.62;100.00;101442.91;5036908;28;20117;-78
2023/02/02 04:30:55;;;;;;;26.55;10.27;;;;;;;6.59;100.00;101435.34;5041955;28;20048;-78
2023/02/02 04:33:23;;;;;;;31.20;11.13;;;;;;;6.53;100.00;101433.19;5045665;28;20080;-77
2023/02/02 04:35:50;;;;;;;35.72;12.70;;;;;;;6.49;100.00;101449.94;5043268;28;20081;-77
2023/02/02 04:38:19;;;;;;;31.10;11.43;;;;;;;6.43;100.00;101442.59;5035299;28;20553;-78
2023/02/02 04:40:47;;;;;;;50.40;17.48;;;;;;;6.37;100.00;101448.22;5033482;28;20085;-79
2023/02/02 04:43:14;;;;;;;42.70;13.73;;;;;;;6.45;100.00;101445.91;5038809;28;20047;-77
2023/02/02 04:45:43;;;;;;;43.30;16.77;;;;;;;6.39;100.00;101451.53;5039168;28;20516;-78
2023/02/02 04:48:10;;;;;;;31.08;13.18;;;;;;;6.41;100.00;101454.84;5049439;28;20336;-77
2023/02/02 04:50:39;;;;;;;46.67;13.90;;;;;;;6.37;100.00;101445.63;5045299;28;20132;-77
2023/02/02 04:53:05;;;;;;;36.22;13.07;;;;;;;6.37;100.00;101445.63;5032191;28;20536;-78
2023/02/02 04:55:36;;;;;;;37.53;11.25;;;;;;;6.38;100.00;101453.31;5044755;28;20140;-78
2023/02/02 04:58:03;;;;;;;44.20;15.60;;;;;;;6.45;100.00;101464.09;5046719;28;20072;-78
2023/02/02 05:00:29;;;;;;;33.83;12.77;;;;;;;6.41;100.00;101460.88;5043671;28;20136;-77
2023/02/02 05:02:57;;;;;;;38.70;13.65;;;;;;;6.43;100.00;101463.38;5046594;28;20092;-78
2023/02/02 05:05:24;;;;;;;35.03;13.88;;;;;;;6.38;100.00;101455.06;5044801;28;20428;-77
2023/02/02 05:07:50;;;;;;;41.05;13.68;;;;;;;6.42;100.00;101472.13;5046703;28;20080;-77
2023/02/02 05:10:27;;;;;;;35.08;13.50;;;;;;;6.40;100.00;101451.44;5046625;28;20099;-77
2023/02/02 05:12:54;;;;;;;34.17;11.40;;;;;;;6.46;100.00;101463.16;5045696;28;20085;-78
2023/02/02 05:15:21;;;;;;;35.70;11.75;;;;;;;6.38;100.00;101463.69;5043786;28;20110;-80
2023/02/02 05:17:47;;;;;;;40.03;13.35;;;;;;;6.47;100.00;101475.22;5043698;28;20049;-79
2023/02/02 05:20:16;;;;;;;40.53;15.82;;;;;;;6.43;100.00;101476.38;5045857;28;20474;-78
2023/02/02 05:22:43;;;;;;;37.03;14.57;;;;;;;6.46;100.00;101471.78;5047299;28;20049;-79
2023/02/02 05:25:10;;;;;;;25.60;13.35;;;;;;;6.46;100.00;101477.00;5050018;28;20062;-79
2023/02/02 05:27:36;;;;;;;35.22;13.90;;;;;;;6.43;100.00;101477.22;5048912;28;20049;-79
2023/02/02 05:30:04;;;;;;;39.65;14.68;;;;;;;6.44;100.00;101476.28;5044122;28;20123;-79
2023/02/02 05:32:30;;;;;;;37.88;15.95;;;;;;;6.37;100.00;101464.63;5046604;28;20049;-79
2023/02/02 05:34:57;;;;;;;49.05;16.15;;;;;;;6.36;100.00;101459.53;5048275;28;20087;-79
2023/02/02 05:37:25;;;;;;;35.38;14.77;;;;;;;6.37;100.00;101448.22;5046498;28;20135;-79
2023/02/02 05:39:52;;;;;;;37.58;16.48;;;;;;;6.36;100.00;101451.75;5046608;28;20095;-79
2023/02/02 05:42:19;;;;;;;33.97;15.52;;;;;;;6.26;100.00;101452.41;5046413;28;20063;-79
2023/02/02 05:44:46;;;;;;;39.35;15.02;;;;;;;6.22;100.00;101445.75;5044110;28;20112;-79
2023/02/02 05:47:12;;;;;;;34.22;13.38;;;;;;;6.18;100.00;101456.47;5045784;28;20049;-79
2023/02/02 05:49:39;;;;;;;32.35;12.55;;;;;;;6.18;100.00;101446.91;5047581;28;20064;-78
2023/02/02 05:52:05;;;;;;;39.67;14.25;;;;;;;6.24;100.00;101454.28;5047473;28;20049;-78
2023/02/02 05:54:33;;;;;;;31.15;11.32;;;;;;;6.27;100.00;101454.06;5041359;28;20055;-78
2023/02/02 05:57:01;;;;;;;29.55;11.35;;;;;;;6.25;100.00;101445.53;5047124;28;20137;-78
2023/02/02 05:59:28;;;;;;;29.80;11.13;;;;;;;6.25;100.00;101444.72;5042997;28;20503;-77
2023/02/02 06:01:55;;;;;;;28.77;11.68;;;;;;;6.23;100.00;101447.41;5045227;28;20084;-77
2023/02/02 06:04:21;;;;;;;32.88;11.30;;;;;;;6.21;100.00;101449.28;5045578;28;20055;-76
2023/02/02 06:06:48;;;;;;;28.65;12.77;;;;;;;6.20;100.00;101460.63;5045362;28;20076;-77
2023/02/02 06:09:15;;;;;;;27.92;11.10;;;;;;;6.18;100.00;101452.09;5042307;28;20137;-77
2023/02/02 06:11:45;;;;;;;31.67;11.07;;;;;;;6.25;100.00;101470.69;5044677;28;20049;-78
2023/02/02 06:14:13;;;;;;;26.60;10.90;;;;;;;6.26;100.00;101475.78;5042666;28;20102;-78
2023/02/02 06:16:40;;;;;;;27.92;10.60;;;;;;;6.27;100.00;101482.66;5042499;28;20046;-79
2023/02/02 06:19:06;;;;;;;27.15;10.85;;;;;;;6.35;100.00;101470.88;5043492;28;20470;-77
2023/02/02 06:21:33;;;;;;;29.60;10.48;;;;;;;6.33;100.00;101482.22;5043499;28;20077;-78
2023/02/02 06:24:00;;;;;;;23.60;10.38;;;;;;;6.36;100.00;101488.13;5045688;28;20105;-78
2023/02/02 06:26:27;;;;;;;29.15;11.10;;;;;;;6.38;100.00;101484.50;5045379;28;20077;-78
2023/02/02 06:28:55;;;;;;;30.25;12.07;;;;;;;6.40;100.00;101480.03;5046585;28;20088;-78
2023/02/02 06:31:22;;;;;;;28.30;11.05;;;;;;;6.40;100.00;101494.78;5047463;28;20057;-78
2023/02/02 06:33:53;;;;;;;23.50;10.90;;;;;;;6.42;100.00;101498.94;5044549;28;20084;-78
2023/02/02 06:36:21;;;;;;;25.00;12.02;;;;;;;6.50;100.00;101506.22;5045021;28;20128;-78
2023/02/02 06:38:49;;;;;;;28.23;11.40;;;;;;;6.44;100.00;101506.63;5043855;28;20144;-79
2023/02/02 06:41:16;;;;;;;34.33;12.43;;;;;;;6.47;100.00;101490.81;5044342;28;20056;-78
2023/02/02 06:43:42;;;;;;;29.33;11.77;;;;;;;6.44;100.00;101502.28;5044070;28;20072;-79
2023/02/02 06:46:10;;;;;;;33.88;12.13;;;;;;;6.40;100.00;101515.59;5053047;28;20095;-78
2023/02/02 06:48:37;;;;;;;25.38;10.30;;;;;;;6.37;100.00;101501.03;5051405;28;20088;-79
2023/02/02 06:51:04;;;;;;;34.00;11.65;;;;;;;6.36;100.00;101498.53;5056569;28;20053;-77
2023/02/02 06:53:31;;;;;;;23.42;11.20;;;;;;;6.38;100.00;101507.91;5052649;28;20049;-78
2023/02/02 06:56:00;;;;;;;25.52;9.98;;;;;;;6.41;100.00;101505.09;5055089;28;20101;-77
2023/02/02 06:58:27;;;;;;;24.55;11.25;;;;;;;6.43;100.00;101515.38;5054921;28;20213;-79
2023/02/02 07:00:54;;;;;;;24.77;9.82;;;;;;;6.41;100.00;101493.84;5053167;28;20030;-78
2023/02/02 07:03:22;;;;;;;27.95;11.15;;;;;;;6.42;100.00;101505.91;5059610;28;20056;-77
2023/02/02 07:05:49;;;;;;;28.75;10.57;;;;;;;6.42;100.00;101503.31;5045108;28;20084;-78
2023/02/02 07:08:16;;;;;;;34.45;10.80;;;;;;;6.39;100.00;101514.75;5044842;28;20041;-80
2023/02/02 07:10:43;;;;;;;25.90;9.88;;;;;;;6.41;100.00;101517.25;5043499;28;20502;-78
2023/02/02 07:13:10;;;;;;;25.20;10.05;;;;;;;6.37;100.00;101511.44;5037673;28;20057;-77
2023/02/02 07:15:38;;;;;;;31.50;11.32;;;;;;;6.41;100.00;101509.44;5044124;28;20077;-78
2023/02/02 07:18:06;;;;;;;25.70;10.25;;;;;;;6.45;100.00;101523.91;5041758;28;20069;-78
2023/02/02 07:20:34;;;;;;;24.17;10.05;;;;;;;6.45;100.00;101518.69;5044838;28;20455;-78
2023/02/02 07:23:03;;;;;;;30.70;11.07;;;;;;;6.44;100.00;101528.25;5047621;28;20045;-78
2023/02/02 07:25:30;;;;;;;25.85;11.25;;;;;;;6.43;100.00;101521.41;5048822;28;20465;-78
2023/02/02 07:27:56;;;;;;;24.58;11.35;;;;;;;6.46;100.00;101530.75;5049562;28;20049;-78
2023/02/02 07:30:24;;;;;;;25.30;10.05;;;;;;;6.46;100.00;101530.75;5044706;28;20083;-77
2023/02/02 07:32:51;;;;;;;28.13;10.80;;;;;;;6.44;100.00;101524.84;5038941;28;20049;-77
2023/02/02 07:49:28;;;;;;;32.10;10.55;;;;;;;6.31;100.00;101507.50;4983029;28;20057;-77
2023/02/02 07:52:11;;;;;;;32.83;11.50;;;;;;;6.52;100.00;101551.13;5055158;28;20077;-78
2023/02/02 07:55:24;;;;;;;27.00;10.63;;;;;;;6.56;100.00;101542.19;5063110;28;20060;-79
2023/02/02 08:01:27;;;;;;;26.02;11.73;;;;;;;6.41;100.00;101549.28;5004183;28;20093;-79
2023/02/02 08:04:21;;;;;;;23.55;10.60;;;;;;;6.20;100.00;101522.16;5054773;28;20467;-79
2023/02/02 08:07:24;;;;;;;19.17;10.95;;;;;;;6.37;100.00;101547.00;5049810;28;20498;-79
2023/02/02 08:10:04;;;;;;;31.98;11.45;;;;;;;6.23;100.00;101516.75;5038428;28;20072;-79
2023/02/02 08:12:31;;;;;;;30.65;11.77;;;;;;;6.22;100.00;101526.31;5053762;28;20049;-80
2023/02/02 08:15:36;;;;;;;27.10;10.35;;;;;;;6.29;100.00;101545.75;5053876;28;20067;-80
2023/02/02 08:18:13;;;;;;;23.17;11.38;;;;;;;6.35;100.00;101536.69;5050214;28;20127;-79
2023/02/02 08:21:02;;;;;;;25.38;10.50;;;;;;;6.38;100.00;101564.25;5054262;28;20345;-80
2023/02/02 08:26:47;;;;;;;30.10;13.63;;;;;;;6.35;100.00;101570.50;5017563;28;20064;-79
2023/02/02 08:29:41;;;;;;;26.55;11.70;;;;;;;6.40;100.00;101577.97;5051687;28;20057;-79
2023/02/02 08:35:23;;;;;;;27.08;12.25;;;;;;;6.43;100.00;101567.38;5047603;28;20056;-80
2023/02/02 08:38:43;;;;;;;32.35;13.55;;;;;;;6.35;100.00;101559.25;5048997;28;20147;-79
2023/02/02 08:41:25;;;;;;;30.95;12.90;;;;;;;6.44;100.00;101559.47;5052080;28;20067;-80
2023/02/02 08:43:52;;;;;;;29.55;13.63;;;;;;;6.42;100.00;101561.34;5060410;28;20122;-79
2023/02/02 08:46:25;;;;;;;35.72;13.35;;;;;;;6.39;100.00;101551.16;5058050;28;20127;-79
2023/02/02 08:49:05;;;;;;;35.55;14.52;;;;;;;6.53;100.00;101579.63;5050316;28;20049;-81
2023/02/02 09:04:21;;;;;;;27.23;13.23;;;;;;;6.67;100.00;101583.84;4968877;28;20061;-81
2023/02/02 09:09:57;;;;;;;25.05;13.48;;;;;;;6.72;100.00;101588.72;5049794;28;20044;-80
2023/02/02 09:12:33;;;;;;;24.38;13.18;;;;;;;6.70;100.00;101591.44;5058812;28;20045;-80
2023/02/02 09:15:06;;;;;;;32.53;12.88;;;;;;;6.72;100.00;101592.16;5055214;28;20048;-80
2023/02/02 09:17:39;;;;;;;28.23;13.02;;;;;;;6.61;100.00;101589.50;5059198;28;20055;-80
2023/02/02 09:20:21;;;;;;;31.02;14.55;;;;;;;6.59;100.00;101586.19;5059025;28;20095;-80
2023/02/02 09:23:21;;;;;;;31.35;13.93;;;;;;;6.79;100.00;101611.59;5054995;28;20088;-80
2023/02/02 09:26:15;;;;;;;27.80;14.32;;;;;;;6.60;100.00;101582.63;5051780;28;20129;-80
2023/02/02 09:29:19;;;;;;;33.75;14.05;;;;;;;6.70;100.00;101604.44;5041338;28;20045;-80
2023/02/02 09:47:00;;;;;;;27.52;15.05;;;;;;;6.56;100.00;101656.59;4952462;28;20055;-79
2023/02/02 10:10:09;;;;;;;33.30;17.50;;;;;;;6.27;100.00;101682.78;5041330;28;20429;-79
2023/02/02 10:16:29;;;;;;;;;;;;;;;;;;;;;
2023/02/02 10:50:26;;;;;;;38.28;18.55;;;;;;;6.81;100.00;101695.56;4971982;28;20181;-79
2023/02/02 10:56:52;;;;;;;29.38;19.40;;;;;;;6.99;100.00;101720.34;4993350;28;20076;-80
2023/02/02 10:59:31;;;;;;;33.25;16.30;;;;;;;7.12;100.00;101732.47;5039344;28;20118;-81
2023/02/02 11:02:27;;;;;;;31.23;18.42;;;;;;;6.94;100.00;101699.00;5049484;28;20485;-79
2023/02/02 11:11:29;;;;;;;29.85;18.08;;;;;;;7.16;100.00;101724.34;5044322;28;20464;-80
2023/02/02 11:14:21;;;;;;;35.15;17.23;;;;;;;7.26;100.00;101734.94;5046568;28;20107;-79
2023/02/02 11:17:29;;;;;;;35.75;17.70;;;;;;;7.24;100.00;101710.78;5035100;28;20502;-79
2023/02/02 11:20:45;;;;;;;34.75;17.48;;;;;;;7.24;100.00;101701.22;5039778;28;20552;-79
2023/02/02 11:23:38;;;;;;;35.30;17.15;;;;;;;7.28;100.00;101713.06;4931841;28;20055;-79
2023/02/02 11:26:13;;;;;;;26.88;14.30;;;;;;;7.40;100.00;101737.41;4963450;28;20079;-80
2023/02/02 11:28:51;;;;;;;30.35;15.27;;;;;;;7.20;100.00;101688.53;5042389;28;20412;-80
2023/02/02 11:31:38;;;;;;;31.60;15.63;;;;;;;7.48;100.00;101729.91;5050044;28;20489;-80
2023/02/02 11:34:56;;;;;;;31.42;16.13;;;;;;;7.56;100.00;101731.97;5052909;28;20429;-80
2023/02/02 11:37:35;;;;;;;31.40;15.52;;;;;;;7.59;100.00;101727.34;4989559;28;20054;-80
2023/02/02 11:40:35;;;;;;;29.35;15.82;;;;;;;7.54;100.00;101713.84;5037463;28;20054;-79
2023/02/02 11:43:43;;;;;;;25.95;14.35;;;;;;;7.66;100.00;101730.34;5037775;28;20152;-79
2023/02/02 11:46:52;;;;;;;31.35;15.68;;;;;;;7.64;100.00;101730.44;5027885;23;20522;-77
2023/02/02 11:52:56;;;;;;;;;;;;;;;;;;;;;
2023/02/02 11:55:48;;;;;;;29.63;14.32;;;;;;;7.79;100.00;101733.72;5027204;28;20068;-79
2023/02/02 11:58:30;;;;;;;32.00;14.00;;;;;;;7.86;100.00;101728.91;5053710;23;20162;-79
2023/02/02 12:00:59;;;;;;;28.00;14.55;;;;;;;7.88;100.00;101716.59;5042035;28;20485;-77
2023/02/02 12:03:30;;;;;;;24.10;13.05;;;;;;;7.76;100.00;101707.91;5037878;28;20437;-79
2023/02/02 12:05:57;;;;;;;24.17;13.40;;;;;;;7.85;100.00;101727.25;5040062;28;20054;-81
2023/02/02 12:08:24;;;;;;;25.70;13.07;;;;;;;7.86;100.00;101734.13;5029363;28;20506;-79
2023/02/02 12:11:03;;;;;;;22.65;12.18;;;;;;;7.88;100.00;101727.03;5020141;28;20092;-79
2023/02/02 12:13:51;;;;;;;21.20;11.07;;;;;;;7.90;100.00;101705.13;5017779;28;20112;-80
2023/02/02 12:16:43;;;;;;;22.52;11.52;;;;;;;7.96;100.00;101709.88;5019964;28;20050;-79
2023/02/02 12:19:33;;;;;;;18.60;10.60;;;;;;;7.96;100.00;101711.66;5012188;28;20129;-77
2023/02/02 12:22:17;;;;;;;25.98;10.63;;;;;;;7.99;100.00;101719.25;5019932;28;20140;-78
2023/02/02 12:24:52;;;;;;;21.27;10.80;;;;;;;8.09;99.85;101711.56;5019452;28;20506;-77
2023/02/02 12:27:34;;;;;;;18.88;10.95;;;;;;;8.11;99.71;101722.72;5022953;28;20120;-79
2023/02/02 12:30:23;;;;;;;19.63;10.95;;;;;;;8.12;99.46;101719.16;5018520;28;20084;-79
2023/02/02 12:33:13;;;;;;;22.60;11.40;;;;;;;8.18;99.07;101723.94;5011763;28;20205;-79
2023/02/02 12:36:03;;;;;;;26.23;10.45;;;;;;;8.13;98.68;101700.78;5010672;28;20057;-77
2023/02/02 12:38:46;;;;;;;22.98;9.25;;;;;;;8.19;98.61;101709.94;5026621;28;20136;-78
2023/02/02 12:41:38;;;;;;;16.08;10.35;;;;;;;8.23;98.57;101712.22;5023336;28;20046;-78
2023/02/02 12:44:16;;;;;;;23.60;10.32;;;;;;;8.26;98.29;101714.59;5016727;28;20113;-78
2023/02/02 12:47:01;;;;;;;19.80;9.88;;;;;;;8.25;98.13;101720.75;5015762;28;20521;-78
2023/02/02 12:49:59;;;;;;;22.15;10.43;;;;;;;8.13;97.52;101711.22;5021265;28;20049;-79
2023/02/02 12:52:40;;;;;;;25.67;10.02;;;;;;;8.13;97.78;101710.41;5005060;28;20069;-79
2023/02/02 12:55:22;;;;;;;21.88;9.35;;;;;;;8.17;97.48;101714.44;5015239;28;20488;-79
2023/02/02 12:57:58;;;;;;;19.92;10.25;;;;;;;8.20;97.75;101706.38;5017105;28;20041;-78
2023/02/02 13:00:41;;;;;;;20.25;9.25;;;;;;;8.24;97.28;101708.66;5018407;28;20060;-80
2023/02/02 13:03:25;;;;;;;17.25;9.45;;;;;;;8.27;96.90;101697.16;5012530;28;20486;-79
2023/02/02 13:06:05;;;;;;;20.42;10.35;;;;;;;8.28;96.78;101704.88;5019361;28;20077;-79
2023/02/02 13:08:40;;;;;;;20.02;10.02;;;;;;;8.39;97.12;101705.88;5019962;28;20042;-80
2023/02/02 13:11:28;;;;;;;22.35;9.70;;;;;;;8.36;96.29;101711.31;5018067;28;20069;-79
2023/02/02 13:13:58;;;;;;;20.58;9.13;;;;;;;8.47;96.35;101703.53;5016406;28;20046;-79
2023/02/02 13:16:29;;;;;;;22.83;10.05;;;;;;;8.46;95.90;101714.91;5014914;28;20050;-78
2023/02/02 13:19:01;;;;;;;22.98;8.95;;;;;;;8.42;96.06;101706.50;5024631;28;20050;-78
2023/02/02 13:21:30;;;;;;;19.40;9.18;;;;;;;8.44;96.11;101712.41;5023887;28;20100;-79
2023/02/02 13:24:00;;;;;;;19.13;9.80;;;;;;;8.44;96.17;101703.75;5031635;28;20137;-78
2023/02/02 13:26:31;;;;;;;18.73;9.60;;;;;;;8.46;96.00;101720.97;5022275;28;20112;-78
2023/02/02 13:29:03;;;;;;;18.65;8.55;;;;;;;8.46;95.92;101717.53;5025651;28;20072;-79
2023/02/02 13:31:38;;;;;;;17.65;8.88;;;;;;;8.51;95.81;101716.19;5024761;28;20064;-79
2023/02/02 13:34:16;;;;;;;21.17;10.68;;;;;;;8.50;95.79;101714.56;5015979;28;20053;-79
2023/02/02 13:36:49;;;;;;;20.15;9.57;;;;;;;8.59;95.53;101724.28;5020636;28;20136;-77
2023/02/02 13:39:22;;;;;;;19.73;8.88;;;;;;;8.49;95.69;101712.06;5020418;28;20109;-77
2023/02/02 13:41:49;;;;;;;24.75;9.43;;;;;;;8.53;95.81;101714.31;5019924;28;20034;-79
2023/02/02 13:44:22;;;;;;;17.10;9.25;;;;;;;8.51;95.62;101715.38;5024754;28;20161;-78
2023/02/02 13:46:55;;;;;;;13.55;7.68;;;;;;;8.46;95.29;101712.31;5033257;28;20088;-79
2023/02/02 13:49:29;;;;;;;17.23;8.80;;;;;;;8.40;95.40;101710.16;5020062;28;20100;-78
2023/02/02 13:52:30;;;;;;;20.38;7.78;;;;;;;8.35;95.81;101713.09;5021824;28;20073;-78
2023/02/02 13:55:34;;;;;;;16.00;7.50;;;;;;;8.32;96.03;101723.72;5030348;28;20041;-78
2023/02/02 13:58:30;;;;;;;15.15;7.50;;;;;;;8.29;96.28;101727.41;5006773;28;20046;-79
2023/02/02 14:01:02;;;;;;;14.63;6.50;;;;;;;8.31;96.30;101725.50;5022177;28;20109;-78
2023/02/02 14:03:38;;;;;;;11.87;5.73;;;;;;;8.35;96.08;101720.09;5022278;28;20097;-78
2023/02/02 14:06:11;;;;;;;14.07;7.03;;;;;;;8.36;95.98;101721.75;5027605;28;20288;-80
2023/02/02 14:08:46;;;;;;;17.10;7.18;;;;;;;8.37;95.73;101718.22;5030346;28;20057;-78
2023/02/02 14:11:20;;;;;;;17.25;7.60;;;;;;;8.45;95.77;101726.28;5026130;28;20490;-78
2023/02/02 14:16:49;;;;;;;17.67;7.60;;;;;;;8.44;95.74;101722.84;5031779;28;20048;-76
2023/02/02 14:19:38;;;;;;;17.77;7.63;;;;;;;8.50;95.37;101724.16;5029732;28;20076;-79
2023/02/02 14:22:17;;;;;;;15.65;6.75;;;;;;;8.48;95.29;101713.03;5034521;28;20301;-79
2023/02/02 14:24:47;;;;;;;14.93;6.90;;;;;;;8.49;95.07;101718.13;5026475;28;20044;-79
2023/02/02 14:28:00;;;;;;;21.73;6.90;;;;;;;8.55;94.75;101711.59;5018504;28;20085;-78
2023/02/02 14:30:32;;;;;;;18.30;7.35;;;;;;;8.56;94.40;101714.06;5022497;28;20110;-78
2023/02/02 14:33:23;;;;;;;13.63;6.47;;;;;;;8.57;94.61;101720.13;5023596;28;20050;-79
2023/02/02 14:36:05;;;;;;;13.02;7.00;;;;;;;8.56;94.70;101721.06;5015563;28;20053;-78
2023/02/02 14:39:05;;;;;;;16.67;5.90;;;;;;;8.59;94.62;101713.84;5020802;28;20092;-79
2023/02/02 14:44:29;;;;;;;13.40;5.95;;;;;;;8.64;94.21;101723.94;5022860;28;20060;-78
2023/02/02 14:46:56;;;;;;;15.07;5.82;;;;;;;8.60;93.89;101725.94;5020144;28;20475;-77
2023/02/02 14:49:28;;;;;;;13.75;5.97;;;;;;;8.58;93.95;101724.41;5021287;28;20105;-78
2023/02/02 14:52:00;;;;;;;11.13;5.68;;;;;;;8.59;93.79;101721.66;5019498;28;20054;-79